createdAt,value
2022-12-06T00:00:04.292Z,2.40
2022-12-06T00:01:13.327Z,2.40
2022-12-06T00:02:15.067Z,2.40
2022-12-06T00:03:16.799Z,2.50
2022-12-06T00:04:18.503Z,2.50
2022-12-06T00:05:20.138Z,2.40
2022-12-06T00:06:24.727Z,2.50
2022-12-06T00:07:26.462Z,2.50
2022-12-06T00:08:28.152Z,2.50
2022-12-06T00:09:32.171Z,2.40
2022-12-06T00:10:36.215Z,2.40
2022-12-06T00:11:37.862Z,2.40
2022-12-06T00:12:39.550Z,2.50
2022-12-06T00:13:41.779Z,2.50
2022-12-06T00:14:43.577Z,2.50
2022-12-06T00:15:45.214Z,2.50
2022-12-06T00:16:47.669Z,2.50
2022-12-06T00:17:49.399Z,2.50
2022-12-06T00:18:51.320Z,2.40
2022-12-06T00:19:53.004Z,2.50
2022-12-06T00:20:54.628Z,2.50
2022-12-06T00:21:56.352Z,2.50
2022-12-06T00:22:58.260Z,2.50
2022-12-06T00:24:12.408Z,2.40
2022-12-06T00:25:14.070Z,2.50
2022-12-06T00:26:16.266Z,2.50
2022-12-06T00:27:17.907Z,2.50
2022-12-06T00:28:19.595Z,2.50
2022-12-06T00:29:23.504Z,2.50
2022-12-06T00:30:25.192Z,2.50
2022-12-06T00:31:29.554Z,2.50
2022-12-06T00:32:31.296Z,2.50
2022-12-06T00:33:34.896Z,2.50
2022-12-06T00:34:36.649Z,2.50
2022-12-06T00:35:38.294Z,2.50
2022-12-06T00:36:41.722Z,2.50
2022-12-06T00:37:43.342Z,2.50
2022-12-06T00:38:45.919Z,2.50
2022-12-06T00:39:47.587Z,2.50
2022-12-06T00:40:50.057Z,2.50
2022-12-06T00:41:55.244Z,2.50
2022-12-06T00:42:56.878Z,2.50
2022-12-06T00:43:58.806Z,2.50
2022-12-06T00:45:00.430Z,2.50
2022-12-06T00:46:03.470Z,2.50
2022-12-06T00:47:05.121Z,2.40
2022-12-06T00:48:06.758Z,2.40
2022-12-06T00:49:09.502Z,2.50
2022-12-06T00:50:11.530Z,2.40
2022-12-06T00:51:14.701Z,2.40
2022-12-06T00:52:16.336Z,2.40
2022-12-06T00:53:17.997Z,2.40
2022-12-06T00:54:19.819Z,2.40
2022-12-06T00:55:21.654Z,2.40
2022-12-06T00:56:23.304Z,2.40
2022-12-06T00:57:24.954Z,2.40
2022-12-06T00:58:26.632Z,2.40
2022-12-06T00:59:28.361Z,2.40
2022-12-06T01:00:30.159Z,2.50
2022-12-06T01:01:33.626Z,2.50
2022-12-06T01:02:35.400Z,2.50
2022-12-06T01:03:37.554Z,2.50
2022-12-06T01:04:39.346Z,2.50
2022-12-06T01:05:42.703Z,2.50
2022-12-06T01:06:44.351Z,2.50
2022-12-06T01:07:46.086Z,2.50
2022-12-06T01:08:47.743Z,2.40
2022-12-06T01:09:49.395Z,2.40
2022-12-06T01:10:53.352Z,2.40
2022-12-06T01:11:55.551Z,2.40
2022-12-06T01:12:57.163Z,2.40
2022-12-06T01:13:59.008Z,2.40
2022-12-06T01:15:00.684Z,2.40
2022-12-06T01:16:08.115Z,2.40
2022-12-06T01:17:09.884Z,2.40
2022-12-06T01:18:11.549Z,2.40
2022-12-06T01:19:13.590Z,2.40
2022-12-06T01:20:15.220Z,2.40
2022-12-06T01:21:18.362Z,2.40
2022-12-06T01:22:20.047Z,2.40
2022-12-06T01:23:22.103Z,2.40
2022-12-06T01:24:23.690Z,2.40
2022-12-06T01:25:26.416Z,2.40
2022-12-06T01:26:30.942Z,2.40
2022-12-06T01:27:32.581Z,2.40
2022-12-06T01:28:34.787Z,2.40
2022-12-06T01:29:36.490Z,2.40
2022-12-06T01:30:40.012Z,2.40
2022-12-06T01:31:41.777Z,2.40
2022-12-06T01:32:43.393Z,2.30
2022-12-06T01:33:45.758Z,2.40
2022-12-06T01:34:52.004Z,2.40
2022-12-06T01:35:53.637Z,2.40
2022-12-06T01:36:55.305Z,2.40
2022-12-06T01:37:59.468Z,2.40
2022-12-06T01:39:06.929Z,2.40
2022-12-06T01:40:09.712Z,2.40
2022-12-06T01:41:11.397Z,2.40
2022-12-06T01:42:13.477Z,2.30
2022-12-06T01:43:40.343Z,2.30
2022-12-06T01:44:44.028Z,2.20
2022-12-06T01:45:45.827Z,2.30
2022-12-06T01:46:47.799Z,2.30
2022-12-06T01:47:50.031Z,2.30
2022-12-06T01:48:57.947Z,2.30
2022-12-06T01:50:08.157Z,2.30
2022-12-06T01:51:12.363Z,2.30
2022-12-06T01:52:14.633Z,2.30
2022-12-06T01:53:19.286Z,2.30
2022-12-06T01:54:24.820Z,2.30
2022-12-06T01:55:29.981Z,2.30
2022-12-06T01:56:32.194Z,2.30
2022-12-06T01:57:34.718Z,2.30
2022-12-06T01:58:40.426Z,2.30
2022-12-06T01:59:42.714Z,2.30
2022-12-06T02:00:44.625Z,2.30
2022-12-06T02:01:46.821Z,2.40
2022-12-06T02:02:48.875Z,2.30
2022-12-06T02:03:51.244Z,2.30
2022-12-06T02:04:53.570Z,2.30
2022-12-06T02:05:57.355Z,2.30
2022-12-06T02:07:01.442Z,2.30
2022-12-06T02:08:04.529Z,2.20
2022-12-06T02:09:08.752Z,2.20
2022-12-06T02:10:11.058Z,2.20
2022-12-06T02:11:12.703Z,2.20
2022-12-06T02:12:15.813Z,2.10
2022-12-06T02:13:17.763Z,2.10
2022-12-06T02:14:23.349Z,2.10
2022-12-06T02:15:50.194Z,2.10
2022-12-06T02:17:17.337Z,2.10
2022-12-06T02:18:31.720Z,2.10
2022-12-06T02:20:01.588Z,2.10
2022-12-06T02:21:29.411Z,2.00
2022-12-06T02:22:49.526Z,2.10
2022-12-06T02:24:03.063Z,2.10
2022-12-06T02:25:17.011Z,2.10
2022-12-06T02:26:36.042Z,2.10
2022-12-06T02:27:49.539Z,2.10
2022-12-06T02:29:19.892Z,2.10
2022-12-06T02:30:55.551Z,2.10
2022-12-06T02:32:08.540Z,2.10
2022-12-06T02:33:35.362Z,2.10
2022-12-06T02:34:45.541Z,2.10
2022-12-06T02:35:58.466Z,2.10
2022-12-06T02:37:14.903Z,2.10
2022-12-06T02:38:21.901Z,2.10
2022-12-06T02:39:48.974Z,2.10
2022-12-06T02:41:01.401Z,2.20
2022-12-06T02:42:08.585Z,2.20
2022-12-06T02:43:15.079Z,2.10
2022-12-06T02:44:25.627Z,2.10
2022-12-06T02:45:35.574Z,2.20
2022-12-06T02:46:39.238Z,2.20
2022-12-06T02:47:43.142Z,2.20
2022-12-06T02:48:46.357Z,2.20
2022-12-06T02:49:54.590Z,2.20
2022-12-06T02:51:07.619Z,2.20
2022-12-06T02:52:09.292Z,2.20
2022-12-06T02:53:15.894Z,2.20
2022-12-06T02:54:18.049Z,2.20
2022-12-06T02:55:21.913Z,2.20
2022-12-06T02:56:24.846Z,2.10
2022-12-06T02:57:59.098Z,2.20
2022-12-06T02:59:01.183Z,2.10
2022-12-06T03:00:03.957Z,2.10
2022-12-06T03:01:12.348Z,2.10
2022-12-06T03:02:14.203Z,2.10
2022-12-06T03:03:33.679Z,2.20
2022-12-06T03:05:09.391Z,2.20
2022-12-06T03:06:34.324Z,2.20
2022-12-06T03:07:47.778Z,2.20
2022-12-06T03:09:19.242Z,2.10
2022-12-06T03:10:43.410Z,2.10
2022-12-06T03:12:05.566Z,2.20
2022-12-06T03:13:30.122Z,2.20
2022-12-06T03:14:43.458Z,2.20
2022-12-06T03:15:55.733Z,2.20
2022-12-06T03:17:29.326Z,2.30
2022-12-06T03:19:05.905Z,2.30
2022-12-06T03:20:34.126Z,2.30
2022-12-06T03:21:43.506Z,2.30
2022-12-06T03:22:50.780Z,2.30
2022-12-06T03:23:52.943Z,2.30
2022-12-06T03:24:55.290Z,2.30
2022-12-06T03:26:00.422Z,2.20
2022-12-06T03:27:07.591Z,2.30
2022-12-06T03:28:11.539Z,2.20
2022-12-06T03:29:16.782Z,2.30
2022-12-06T03:30:18.804Z,2.40
2022-12-06T03:31:22.783Z,2.40
2022-12-06T03:32:28.357Z,2.30
2022-12-06T03:33:32.074Z,2.30
2022-12-06T03:34:38.945Z,2.30
2022-12-06T03:35:41.934Z,2.30
2022-12-06T03:36:46.622Z,2.30
2022-12-06T03:37:51.601Z,2.30
2022-12-06T03:39:00.748Z,2.30
2022-12-06T03:40:21.478Z,2.20
2022-12-06T03:41:26.836Z,2.30
2022-12-06T03:42:29.125Z,2.30
2022-12-06T03:43:30.887Z,2.30
2022-12-06T03:44:34.283Z,2.20
2022-12-06T03:46:16.529Z,2.20
2022-12-06T03:47:25.496Z,2.20
2022-12-06T03:48:32.495Z,2.20
2022-12-06T03:50:09.995Z,2.20
2022-12-06T03:51:18.038Z,2.20
2022-12-06T03:52:19.739Z,2.20
2022-12-06T03:53:21.477Z,2.20
2022-12-06T03:54:23.305Z,2.20
2022-12-06T03:55:24.932Z,2.10
2022-12-06T03:56:27.261Z,2.20
2022-12-06T03:57:28.886Z,2.20
2022-12-06T03:58:30.600Z,2.30
2022-12-06T03:59:32.521Z,2.30
2022-12-06T04:00:34.125Z,2.20
2022-12-06T04:01:36.701Z,2.30
2022-12-06T04:02:38.568Z,2.30
2022-12-06T04:03:40.464Z,2.30
2022-12-06T04:04:42.076Z,2.30
2022-12-06T04:05:43.665Z,2.30
2022-12-06T04:06:45.264Z,2.30
2022-12-06T04:07:46.949Z,2.30
2022-12-06T04:08:48.601Z,2.30
2022-12-06T04:09:54.415Z,2.40
2022-12-06T04:10:56.052Z,2.40
2022-12-06T04:11:57.701Z,2.30
2022-12-06T04:13:02.400Z,2.30
2022-12-06T04:14:04.026Z,2.30
2022-12-06T04:15:07.052Z,2.30
2022-12-06T04:16:28.546Z,2.30
2022-12-06T04:17:48.764Z,2.40
2022-12-06T04:18:50.358Z,2.40
2022-12-06T04:19:52.303Z,2.40
2022-12-06T04:21:21.032Z,2.40
2022-12-06T04:22:41.480Z,2.30
2022-12-06T04:23:45.970Z,2.30
2022-12-06T04:24:47.557Z,2.30
2022-12-06T04:25:49.395Z,2.30
2022-12-06T04:26:51.010Z,2.30
2022-12-06T04:28:11.332Z,2.30
2022-12-06T04:29:31.734Z,2.30
2022-12-06T04:30:52.363Z,2.30
2022-12-06T04:32:12.712Z,2.30
2022-12-06T04:33:33.035Z,2.30
2022-12-06T04:34:53.430Z,2.30
2022-12-06T04:36:16.575Z,2.30
2022-12-06T04:37:36.938Z,2.30
2022-12-06T04:38:47.714Z,2.20
2022-12-06T04:39:49.624Z,2.20
2022-12-06T04:40:51.217Z,2.20
2022-12-06T04:42:11.718Z,2.20
2022-12-06T04:43:32.692Z,2.20
2022-12-06T04:44:34.280Z,2.20
2022-12-06T04:45:35.858Z,2.10
2022-12-06T04:46:37.552Z,2.10
2022-12-06T04:47:39.272Z,2.20
2022-12-06T04:48:41.391Z,2.10
2022-12-06T04:49:43.082Z,2.10
2022-12-06T04:50:51.247Z,2.10
2022-12-06T04:51:53.944Z,2.10
2022-12-06T04:52:55.615Z,2.10
2022-12-06T04:53:57.240Z,2.10
2022-12-06T04:54:58.847Z,2.10
2022-12-06T04:56:00.929Z,2.10
2022-12-06T04:57:03.425Z,2.20
2022-12-06T04:58:06.014Z,2.20
2022-12-06T04:59:07.604Z,2.20
2022-12-06T05:00:09.628Z,2.20
2022-12-06T05:01:11.591Z,2.10
2022-12-06T05:02:15.497Z,2.20
2022-12-06T05:03:17.125Z,2.20
2022-12-06T05:04:19.063Z,2.10
2022-12-06T05:05:20.679Z,2.10
2022-12-06T05:06:22.285Z,2.10
2022-12-06T05:07:23.990Z,2.10
2022-12-06T05:08:25.841Z,2.10
2022-12-06T05:09:27.740Z,2.10
2022-12-06T05:10:29.374Z,2.10
2022-12-06T05:11:31.026Z,2.20
2022-12-06T05:12:32.667Z,2.10
2022-12-06T05:13:34.364Z,2.10
2022-12-06T05:14:36.019Z,2.10
2022-12-06T05:15:37.615Z,2.00
2022-12-06T05:16:39.327Z,2.00
2022-12-06T05:17:40.935Z,2.00
2022-12-06T05:18:42.549Z,2.00
2022-12-06T05:19:44.171Z,2.00
2022-12-06T05:20:46.576Z,2.00
2022-12-06T05:21:48.157Z,2.00
2022-12-06T05:22:49.879Z,2.00
2022-12-06T05:23:55.915Z,2.00
2022-12-06T05:24:57.554Z,2.00
2022-12-06T05:26:00.764Z,2.00
2022-12-06T05:27:02.751Z,2.10
2022-12-06T05:28:04.879Z,2.10
2022-12-06T05:29:06.528Z,2.00
2022-12-06T05:30:08.933Z,2.10
2022-12-06T05:31:11.477Z,2.10
2022-12-06T05:32:13.103Z,2.10
2022-12-06T05:33:14.770Z,2.10
2022-12-06T05:34:16.634Z,2.00
2022-12-06T05:35:18.254Z,2.00
2022-12-06T05:36:25.317Z,2.00
2022-12-06T05:37:26.939Z,2.00
2022-12-06T05:38:28.629Z,2.00
2022-12-06T05:39:30.271Z,2.00
2022-12-06T05:40:31.859Z,2.00
2022-12-06T05:41:33.468Z,2.00
2022-12-06T05:42:35.128Z,2.00
2022-12-06T05:43:36.897Z,2.00
2022-12-06T05:44:38.535Z,2.00
2022-12-06T05:45:40.885Z,1.90
2022-12-06T05:46:42.577Z,1.90
2022-12-06T05:47:44.219Z,1.90
2022-12-06T05:48:46.129Z,1.90
2022-12-06T05:49:47.767Z,1.90
2022-12-06T05:50:50.357Z,1.90
2022-12-06T05:51:51.951Z,1.90
2022-12-06T05:52:55.015Z,1.90
2022-12-06T05:54:37.210Z,1.90
2022-12-06T05:55:38.837Z,1.90
2022-12-06T05:56:40.496Z,1.90
2022-12-06T05:57:47.102Z,1.90
2022-12-06T05:58:49.015Z,1.90
2022-12-06T05:59:50.608Z,1.90
2022-12-06T06:00:52.286Z,1.90
2022-12-06T06:01:53.956Z,1.90
2022-12-06T06:02:55.761Z,1.80
2022-12-06T06:03:57.465Z,1.80
2022-12-06T06:04:59.056Z,1.80
2022-12-06T06:06:01.512Z,1.80
2022-12-06T06:07:03.167Z,1.90
2022-12-06T06:08:05.187Z,1.90
2022-12-06T06:09:06.853Z,1.90
2022-12-06T06:10:08.685Z,1.90
2022-12-06T06:11:10.396Z,1.90
2022-12-06T06:12:12.821Z,1.80
2022-12-06T06:13:14.702Z,1.80
2022-12-06T06:14:16.317Z,1.80
2022-12-06T06:15:18.055Z,1.80
2022-12-06T06:16:20.216Z,1.80
2022-12-06T06:17:21.885Z,1.80
2022-12-06T06:18:23.616Z,1.90
2022-12-06T06:19:25.204Z,1.90
2022-12-06T06:20:26.798Z,1.90
2022-12-06T06:21:28.684Z,1.90
2022-12-06T06:22:30.351Z,1.90
2022-12-06T06:23:32.350Z,1.80
2022-12-06T06:24:38.929Z,1.80
2022-12-06T06:25:40.758Z,1.90
2022-12-06T06:26:42.375Z,1.90
2022-12-06T06:27:43.969Z,1.90
2022-12-06T06:28:45.547Z,2.00
2022-12-06T06:29:47.173Z,2.00
2022-12-06T06:30:48.858Z,2.00
2022-12-06T06:31:50.514Z,2.00
2022-12-06T06:32:52.162Z,2.00
2022-12-06T06:33:53.739Z,2.00
2022-12-06T06:34:55.351Z,2.00
2022-12-06T06:35:57.087Z,2.00
2022-12-06T06:36:58.751Z,2.00
2022-12-06T06:38:00.796Z,2.00
2022-12-06T06:39:02.447Z,2.00
2022-12-06T06:40:04.907Z,2.00
2022-12-06T06:41:07.455Z,1.90
2022-12-06T06:42:09.062Z,1.90
2022-12-06T06:43:20.447Z,1.90
2022-12-06T06:44:22.305Z,1.90
2022-12-06T06:45:28.586Z,1.90
2022-12-06T06:46:30.504Z,2.00
2022-12-06T06:47:32.267Z,2.00
2022-12-06T06:48:36.910Z,2.00
2022-12-06T06:49:38.554Z,2.00
2022-12-06T06:50:40.310Z,2.00
2022-12-06T06:51:41.968Z,2.00
2022-12-06T06:52:43.646Z,2.00
2022-12-06T06:53:45.235Z,2.10
2022-12-06T06:54:46.857Z,2.20
2022-12-06T06:55:48.678Z,2.20
2022-12-06T06:56:50.265Z,2.20
2022-12-06T06:57:52.242Z,2.20
2022-12-06T06:58:53.813Z,2.20
2022-12-06T06:59:56.282Z,2.30
2022-12-06T07:01:02.938Z,2.40
2022-12-06T07:02:04.613Z,2.40
2022-12-06T07:03:06.261Z,2.40
2022-12-06T07:04:07.893Z,2.50
2022-12-06T07:05:09.706Z,2.50
2022-12-06T07:06:11.583Z,2.50
2022-12-06T07:07:19.400Z,2.40
2022-12-06T07:08:22.704Z,2.30
2022-12-06T07:09:24.358Z,2.20
2022-12-06T07:10:27.226Z,2.20
2022-12-06T07:11:28.845Z,2.20
2022-12-06T07:12:30.460Z,2.20
2022-12-06T07:13:32.666Z,2.20
2022-12-06T07:14:34.675Z,2.20
2022-12-06T07:15:36.389Z,2.30
2022-12-06T07:16:38.065Z,2.30
2022-12-06T07:17:40.244Z,2.30
2022-12-06T07:18:43.004Z,2.30
2022-12-06T07:19:44.634Z,2.20
2022-12-06T07:20:48.232Z,2.20
2022-12-06T07:21:50.767Z,2.30
2022-12-06T07:22:52.390Z,2.30
2022-12-06T07:23:54.018Z,2.40
2022-12-06T07:24:55.644Z,2.40
2022-12-06T07:26:02.090Z,2.40
2022-12-06T07:27:03.746Z,2.40
2022-12-06T07:28:05.495Z,2.40
2022-12-06T07:29:07.137Z,2.50
2022-12-06T07:30:12.150Z,2.50
2022-12-06T07:31:21.936Z,2.50
2022-12-06T07:32:23.620Z,2.60
2022-12-06T07:33:25.222Z,2.60
2022-12-06T07:34:26.865Z,2.60
2022-12-06T07:35:48.605Z,2.50
2022-12-06T07:36:50.033Z,2.50
2022-12-06T07:37:51.661Z,2.50
2022-12-06T07:38:55.799Z,2.50
2022-12-06T07:39:57.813Z,2.50
2022-12-06T07:41:23.650Z,2.60
2022-12-06T07:42:44.171Z,2.50
2022-12-06T07:44:04.640Z,2.50
2022-12-06T07:45:08.767Z,2.50
2022-12-06T07:46:11.621Z,2.60
2022-12-06T07:47:13.310Z,2.60
2022-12-06T07:48:15.167Z,2.70
2022-12-06T07:49:18.280Z,2.70
2022-12-06T07:50:22.421Z,2.70
2022-12-06T07:51:24.041Z,2.60
2022-12-06T07:52:25.619Z,2.60
2022-12-06T07:53:27.257Z,2.60
2022-12-06T07:54:29.095Z,2.60
2022-12-06T07:55:30.745Z,2.70
2022-12-06T07:56:32.330Z,2.70
2022-12-06T07:57:37.353Z,2.70
2022-12-06T07:58:43.259Z,2.70
2022-12-06T07:59:44.834Z,2.60
2022-12-06T08:00:46.470Z,2.60
2022-12-06T08:01:48.271Z,2.60
2022-12-06T08:02:49.950Z,2.60
2022-12-06T08:03:51.590Z,2.50
2022-12-06T08:04:54.189Z,2.50
2022-12-06T08:05:56.031Z,2.50
2022-12-06T08:06:57.761Z,2.50
2022-12-06T08:07:59.689Z,2.50
2022-12-06T08:09:01.515Z,2.50
2022-12-06T08:10:04.038Z,2.60
2022-12-06T08:11:08.542Z,2.60
2022-12-06T08:12:10.254Z,2.60
2022-12-06T08:13:11.906Z,2.60
2022-12-06T08:14:13.624Z,2.60
2022-12-06T08:15:15.281Z,2.70
2022-12-06T08:16:17.472Z,2.70
2022-12-06T08:17:19.110Z,2.70
2022-12-06T08:18:20.983Z,2.70
2022-12-06T08:19:22.579Z,2.70
2022-12-06T08:20:24.161Z,2.70
2022-12-06T08:21:26.644Z,2.70
2022-12-06T08:22:28.650Z,2.70
2022-12-06T08:23:34.185Z,2.70
2022-12-06T08:24:36.254Z,2.70
2022-12-06T08:25:37.853Z,2.70
2022-12-06T08:26:39.748Z,2.70
2022-12-06T08:27:41.415Z,2.70
2022-12-06T08:28:43.420Z,2.70
2022-12-06T08:29:45.496Z,2.70
2022-12-06T08:30:47.138Z,2.70
2022-12-06T08:31:49.534Z,2.70
2022-12-06T08:32:51.120Z,2.70
2022-12-06T08:33:52.782Z,2.60
2022-12-06T08:34:54.363Z,2.50
2022-12-06T08:35:55.955Z,2.50
2022-12-06T08:37:02.998Z,2.50
2022-12-06T08:38:05.036Z,2.60
2022-12-06T08:39:08.133Z,2.50
2022-12-06T08:40:09.991Z,2.50
2022-12-06T08:41:31.058Z,2.50
2022-12-06T08:42:32.889Z,2.50
2022-12-06T08:43:34.496Z,2.50
2022-12-06T08:44:36.440Z,2.50
2022-12-06T08:45:38.063Z,2.50
2022-12-06T08:46:40.350Z,2.50
2022-12-06T08:47:42.038Z,2.50
2022-12-06T08:48:43.760Z,2.50
2022-12-06T08:49:45.485Z,2.50
2022-12-06T08:50:47.210Z,2.50
2022-12-06T08:51:48.977Z,2.50
2022-12-06T08:52:50.736Z,2.60
2022-12-06T08:53:53.409Z,2.60
2022-12-06T08:54:55.102Z,2.70
2022-12-06T08:56:02.381Z,2.70
2022-12-06T08:57:04.570Z,2.70
2022-12-06T08:58:06.210Z,2.70
2022-12-06T08:59:08.121Z,2.60
2022-12-06T09:00:11.041Z,2.60
2022-12-06T09:01:15.624Z,2.60
2022-12-06T09:02:17.353Z,2.60
2022-12-06T09:03:19.375Z,2.60
2022-12-06T09:04:21.088Z,2.60
2022-12-06T09:05:22.727Z,2.70
2022-12-06T09:06:24.613Z,2.70
2022-12-06T09:07:26.442Z,2.70
2022-12-06T09:08:28.057Z,2.60
2022-12-06T09:09:29.676Z,2.70
2022-12-06T09:10:31.287Z,2.70
2022-12-06T09:11:32.877Z,2.70
2022-12-06T09:12:34.488Z,2.70
2022-12-06T09:13:37.785Z,2.70
2022-12-06T09:14:39.414Z,2.70
2022-12-06T09:15:41.024Z,2.70
2022-12-06T09:16:44.339Z,2.70
2022-12-06T09:17:45.953Z,2.70
2022-12-06T09:18:48.456Z,2.70
2022-12-06T09:19:50.112Z,2.70
2022-12-06T09:20:51.693Z,2.70
2022-12-06T09:21:53.504Z,2.70
2022-12-06T09:22:55.102Z,2.70
2022-12-06T09:23:57.906Z,2.60
2022-12-06T09:24:59.507Z,2.60
2022-12-06T09:26:01.667Z,2.50
2022-12-06T09:27:03.488Z,2.40
2022-12-06T09:28:05.358Z,2.40
2022-12-06T09:29:07.339Z,2.40
2022-12-06T09:30:09.820Z,2.40
2022-12-06T09:31:11.533Z,2.30
2022-12-06T09:32:13.177Z,2.30
2022-12-06T09:33:14.806Z,2.30
2022-12-06T09:34:17.141Z,2.30
2022-12-06T09:35:24.759Z,2.40
2022-12-06T09:36:29.122Z,2.40
2022-12-06T09:37:32.458Z,2.40
2022-12-06T09:38:37.516Z,2.40
2022-12-06T09:39:53.420Z,2.40
2022-12-06T09:41:16.519Z,2.50
2022-12-06T09:42:51.680Z,2.50
2022-12-06T09:43:56.116Z,2.50
2022-12-06T09:45:19.103Z,2.40
2022-12-06T09:46:26.589Z,2.40
2022-12-06T09:47:49.684Z,2.50
2022-12-06T09:49:21.803Z,2.40
2022-12-06T09:50:47.548Z,2.40
2022-12-06T09:51:58.907Z,2.40
2022-12-06T09:53:08.638Z,2.40
2022-12-06T09:54:25.037Z,2.50
2022-12-06T09:55:54.037Z,2.60
2022-12-06T09:57:01.591Z,2.60
2022-12-06T09:58:32.720Z,2.70
2022-12-06T09:59:54.622Z,2.70
2022-12-06T10:01:16.518Z,2.80
2022-12-06T10:02:36.262Z,2.80
2022-12-06T10:03:58.881Z,2.80
2022-12-06T10:05:23.602Z,2.80
2022-12-06T10:06:42.303Z,2.80
2022-12-06T10:07:56.230Z,2.90
2022-12-06T10:09:35.228Z,2.90
2022-12-06T10:10:55.442Z,2.80
2022-12-06T10:12:06.593Z,2.80
2022-12-06T10:13:19.323Z,2.80
2022-12-06T10:14:53.405Z,2.80
2022-12-06T10:16:00.814Z,2.80
2022-12-06T10:17:24.916Z,2.80
2022-12-06T10:18:38.540Z,2.80
2022-12-06T10:19:53.539Z,2.80
2022-12-06T10:21:10.469Z,2.90
2022-12-06T10:22:29.735Z,2.80
2022-12-06T10:23:43.058Z,2.80
2022-12-06T10:24:59.178Z,2.80
2022-12-06T10:26:21.875Z,2.80
2022-12-06T10:27:31.971Z,2.80
2022-12-06T10:28:48.138Z,2.90
2022-12-06T10:29:57.447Z,2.90
2022-12-06T10:31:08.665Z,2.90
2022-12-06T10:32:30.132Z,2.90
2022-12-06T10:33:57.415Z,2.90
2022-12-06T10:35:13.563Z,2.90
2022-12-06T10:36:24.067Z,2.90
2022-12-06T10:37:44.523Z,2.80
2022-12-06T10:38:55.762Z,2.80
2022-12-06T10:40:00.506Z,2.80
2022-12-06T10:41:21.118Z,2.80
2022-12-06T10:42:35.502Z,2.80
2022-12-06T10:43:49.983Z,2.70
2022-12-06T10:45:01.534Z,2.70
2022-12-06T10:46:53.522Z,2.80
2022-12-06T10:47:59.254Z,2.80
2022-12-06T10:49:09.064Z,2.70
2022-12-06T10:50:33.081Z,2.80
2022-12-06T10:51:43.987Z,2.80
2022-12-06T10:53:02.194Z,2.80
2022-12-06T10:54:23.999Z,2.90
2022-12-06T10:55:25.642Z,2.90
2022-12-06T10:56:31.939Z,2.90
2022-12-06T10:57:53.155Z,2.90
2022-12-06T10:59:18.775Z,3.00
2022-12-06T11:00:26.938Z,3.10
2022-12-06T11:01:34.347Z,3.10
2022-12-06T11:02:46.978Z,3.10
2022-12-06T11:04:07.218Z,3.10
2022-12-06T11:05:30.872Z,3.00
2022-12-06T11:06:50.080Z,2.90
2022-12-06T11:08:02.477Z,2.90
2022-12-06T11:09:33.529Z,3.00
2022-12-06T11:10:35.851Z,3.00
2022-12-06T11:11:40.292Z,3.10
2022-12-06T11:12:42.560Z,3.10
2022-12-06T11:14:11.883Z,3.20
2022-12-06T11:15:16.193Z,3.20
2022-12-06T11:16:23.050Z,3.20
2022-12-06T11:17:29.932Z,3.20
2022-12-06T11:18:32.187Z,3.10
2022-12-06T11:19:38.162Z,3.10
2022-12-06T11:20:53.458Z,3.10
2022-12-06T11:22:20.132Z,3.10
2022-12-06T11:23:45.990Z,3.10
2022-12-06T11:25:03.283Z,3.00
2022-12-06T11:26:22.881Z,3.10
2022-12-06T11:27:33.243Z,2.90
2022-12-06T11:28:40.347Z,2.90
2022-12-06T11:29:48.163Z,2.90
2022-12-06T11:30:52.783Z,2.80
2022-12-06T11:32:04.014Z,2.80
2022-12-06T11:33:06.013Z,2.80
2022-12-06T11:34:21.593Z,2.80
2022-12-06T11:35:26.277Z,2.90
2022-12-06T11:36:29.141Z,2.90
2022-12-06T11:37:33.589Z,3.00
2022-12-06T11:38:39.576Z,3.00
2022-12-06T11:39:41.203Z,3.00
2022-12-06T11:40:46.663Z,3.00
2022-12-06T11:41:52.874Z,3.00
2022-12-06T11:42:58.832Z,3.00
2022-12-06T11:44:00.671Z,2.90
2022-12-06T11:45:15.423Z,3.00
2022-12-06T11:46:17.371Z,2.90
2022-12-06T11:47:21.936Z,2.90
2022-12-06T11:48:25.922Z,2.90
2022-12-06T11:49:41.130Z,2.90
2022-12-06T11:50:44.194Z,2.90
2022-12-06T11:51:45.825Z,2.90
2022-12-06T11:52:55.564Z,2.90
2022-12-06T11:54:28.986Z,2.90
2022-12-06T11:55:36.560Z,3.00
2022-12-06T11:56:38.955Z,3.00
2022-12-06T11:57:50.761Z,3.00
2022-12-06T11:59:05.507Z,3.00
2022-12-06T12:00:13.019Z,3.00
2022-12-06T12:01:14.850Z,3.00
2022-12-06T12:02:31.875Z,3.00
2022-12-06T12:03:36.464Z,3.00
2022-12-06T12:04:44.090Z,3.10
2022-12-06T12:05:45.702Z,3.10
2022-12-06T12:06:47.479Z,3.10
2022-12-06T12:08:01.953Z,3.10
2022-12-06T12:09:06.221Z,3.20
2022-12-06T12:10:39.846Z,3.20
2022-12-06T12:11:42.100Z,3.20
2022-12-06T12:13:06.432Z,3.20
2022-12-06T12:14:17.111Z,3.20
2022-12-06T12:15:19.589Z,3.20
2022-12-06T12:16:26.523Z,3.20
2022-12-06T12:17:31.412Z,3.20
2022-12-06T12:18:36.532Z,3.20
2022-12-06T12:19:43.674Z,3.20
2022-12-06T12:20:46.747Z,3.20
2022-12-06T12:21:54.065Z,3.20
2022-12-06T12:23:07.296Z,3.20
2022-12-06T12:26:16.585Z,3.20
2022-12-06T12:27:39.691Z,3.20
2022-12-06T12:28:43.375Z,3.20
2022-12-06T12:29:44.990Z,3.20
2022-12-06T12:30:57.099Z,3.20
2022-12-06T12:31:59.611Z,3.30
2022-12-06T12:33:09.428Z,3.30
2022-12-06T12:34:21.611Z,3.30
2022-12-06T12:35:28.458Z,3.30
2022-12-06T12:36:30.249Z,3.30
2022-12-06T12:37:31.843Z,3.30
2022-12-06T12:38:36.827Z,3.30
2022-12-06T12:39:41.822Z,3.30
2022-12-06T12:40:47.460Z,3.30
2022-12-06T12:41:49.240Z,3.20
2022-12-06T12:43:05.792Z,3.20
2022-12-06T12:44:39.735Z,3.20
2022-12-06T12:46:02.964Z,3.20
2022-12-06T12:47:19.547Z,3.20
2022-12-06T12:48:23.805Z,3.20
2022-12-06T12:49:30.431Z,3.20
2022-12-06T12:50:32.592Z,3.30
2022-12-06T12:51:37.858Z,3.20
2022-12-06T12:52:41.693Z,3.20
2022-12-06T12:53:46.351Z,3.20
2022-12-06T12:55:13.668Z,3.10
2022-12-06T12:56:18.108Z,3.10
2022-12-06T12:57:19.707Z,3.10
2022-12-06T12:58:21.322Z,3.10
2022-12-06T12:59:26.150Z,3.10
2022-12-06T13:00:37.278Z,3.10
2022-12-06T13:02:27.051Z,3.10
2022-12-06T13:03:50.306Z,3.20
2022-12-06T13:05:17.257Z,3.20
2022-12-06T13:06:45.215Z,3.20
2022-12-06T13:07:49.324Z,3.20
2022-12-06T13:08:52.107Z,3.20
2022-12-06T13:09:56.790Z,3.20
2022-12-06T13:11:01.826Z,3.20
2022-12-06T13:12:07.262Z,3.20
2022-12-06T13:13:18.788Z,3.10
2022-12-06T13:14:22.506Z,3.10
2022-12-06T13:15:47.129Z,3.10
2022-12-06T13:16:52.307Z,3.20
2022-12-06T13:18:21.125Z,3.20
2022-12-06T13:19:30.852Z,3.20
2022-12-06T13:20:34.176Z,3.20
2022-12-06T13:21:41.015Z,3.20
2022-12-06T13:22:45.350Z,3.20
2022-12-06T13:23:50.310Z,3.10
2022-12-06T13:25:02.543Z,3.10
2022-12-06T13:26:26.601Z,3.10
2022-12-06T13:27:36.029Z,3.10
2022-12-06T13:28:43.088Z,3.10
2022-12-06T13:29:57.350Z,3.20
2022-12-06T13:31:13.381Z,3.20
2022-12-06T13:32:20.171Z,3.10
2022-12-06T13:33:25.861Z,3.10
2022-12-06T13:34:39.107Z,3.10
2022-12-06T13:35:48.374Z,3.10
2022-12-06T13:36:52.161Z,3.20
2022-12-06T13:37:58.301Z,3.10
2022-12-06T13:39:34.843Z,3.10
2022-12-06T13:40:51.020Z,3.10
2022-12-06T13:42:14.287Z,3.10
2022-12-06T13:43:24.864Z,3.10
2022-12-06T13:44:56.411Z,3.10
2022-12-06T13:46:07.207Z,3.10
2022-12-06T13:47:27.262Z,3.20
2022-12-06T13:48:46.927Z,3.20
2022-12-06T13:49:49.168Z,3.10
2022-12-06T13:51:04.830Z,3.20
2022-12-06T13:52:06.552Z,3.20
2022-12-06T13:53:08.359Z,3.20
2022-12-06T13:54:12.891Z,3.20
2022-12-06T13:55:28.211Z,3.20
2022-12-06T13:56:34.358Z,3.20
2022-12-06T13:57:36.024Z,3.20
2022-12-06T13:58:48.492Z,3.30
2022-12-06T13:59:50.162Z,3.30
2022-12-06T14:00:54.246Z,3.30
2022-12-06T14:02:00.686Z,3.30
2022-12-06T14:03:29.835Z,3.20
2022-12-06T14:07:00.799Z,3.20
2022-12-06T14:08:02.453Z,3.20
2022-12-06T14:09:04.329Z,3.20
2022-12-06T14:10:14.475Z,3.20
2022-12-06T14:11:21.855Z,3.20
2022-12-06T14:12:26.481Z,3.20
2022-12-06T14:13:28.102Z,3.10
2022-12-06T14:14:29.715Z,3.10
2022-12-06T14:15:31.386Z,3.10
2022-12-06T14:16:40.920Z,3.10
2022-12-06T14:19:22.427Z,3.10
2022-12-06T14:20:25.836Z,3.10
2022-12-06T14:21:34.500Z,3.20
2022-12-06T14:22:37.179Z,3.20
2022-12-06T14:23:47.075Z,3.20
2022-12-06T14:25:05.644Z,3.10
2022-12-06T14:26:27.968Z,3.10
2022-12-06T14:27:32.830Z,3.10
2022-12-06T14:28:35.730Z,3.20
2022-12-06T14:29:37.533Z,3.20
2022-12-06T14:30:39.816Z,3.20
2022-12-06T14:31:41.543Z,3.30
2022-12-06T14:32:49.355Z,3.30
2022-12-06T14:33:52.636Z,3.30
2022-12-06T14:35:05.315Z,3.30
2022-12-06T14:36:17.207Z,3.30
2022-12-06T14:37:22.091Z,3.30
2022-12-06T14:38:27.551Z,3.20
2022-12-06T14:39:31.446Z,3.30
2022-12-06T14:41:01.665Z,3.20
2022-12-06T14:42:34.651Z,3.30
2022-12-06T14:43:37.137Z,3.30
2022-12-06T14:44:40.179Z,3.20
2022-12-06T14:45:43.933Z,3.20
2022-12-06T14:46:49.322Z,3.20
2022-12-06T14:47:51.094Z,3.20
2022-12-06T14:49:11.243Z,3.30
2022-12-06T14:50:29.554Z,3.40
2022-12-06T14:51:36.723Z,3.30
2022-12-06T14:52:55.075Z,3.30
2022-12-06T14:53:56.661Z,3.20
2022-12-06T14:55:17.746Z,3.20
2022-12-06T14:56:35.851Z,3.20
2022-12-06T14:57:47.675Z,3.30
2022-12-06T14:58:49.312Z,3.30
2022-12-06T15:00:25.831Z,3.30